Guion, Arkansas
Current Conditions -  °F | °C
As of 11:15 AM on Thursday 27 Nov 2014 (Local Time) from KBVX Reporting Station
Clear Clear  
Wind Chill: 39°   Ceiling: Unl
Heat Index: 43°   Visibility: 10mi
Dew Point: 27°   Wind: 7mph
Humidity: 53%   Direction: 300°WNW
Pressure: 30.52"   Gusts: NA
Location:  35.93°N, 91.94°W
Report Text: KBVX 271715Z AUTO 30006KT 10SM CLR 06/M03 A3052 RMK AO1
Loading
Personal Weather Stations






























Interactive Weather Map New forecast layout! Learn more

10-Day Weather Forecast

Advertisements
Track Severe Weather on mobile